Time;durP1;ratioP1;P1;durP2;ratioP2;P2;SDS_P1;SDS_P2;PMS_P1;PMS_P2;Temp;Humidity;BMP_temperature;BMP_pressure;BME280_temperature;BME280_humidity;BME280_pressure;Samples;Min_cycle;Max_cycle;Signal;HPM_P1;HPM_P2
2023/03/08 00:00:37;;;;;;;3.77;1.57;;;;;;;;;;5064521;28;20268;-51
2023/03/08 00:03:04;;;;;;;2.60;1.80;;;;;;;;;;5070462;28;20269;-52
2023/03/08 00:05:30;;;;;;;3.63;1.70;;;;;;;;;;5073564;28;20325;-52
2023/03/08 00:07:56;;;;;;;2.43;2.00;;;;;;;;;;5068423;28;20716;-51
2023/03/08 00:10:23;;;;;;;1.57;1.47;;;;;;;;;;5067423;28;20233;-52
2023/03/08 00:12:49;;;;;;;5.70;1.93;;;;;;;;;;5063777;28;20587;-52
2023/03/08 00:15:16;;;;;;;2.63;2.33;;;;;;;;;;5055394;28;20325;-52
2023/03/08 00:17:43;;;;;;;6.27;2.03;;;;;;;;;;5069263;28;20231;-53
2023/03/08 00:20:11;;;;;;;3.20;1.73;;;;;;;;;;5069369;28;20258;-53
2023/03/08 00:22:37;;;;;;;2.70;2.23;;;;;;;;;;5060028;28;20238;-51
2023/03/08 00:25:04;;;;;;;2.23;1.97;;;;;;;;;;5068479;28;20237;-52
2023/03/08 00:27:31;;;;;;;4.13;2.13;;;;;;;;;;5068816;28;20242;-56
2023/03/08 00:29:57;;;;;;;5.50;2.57;;;;;;;;;;5068297;28;20239;-51
2023/03/08 00:32:24;;;;;;;5.93;2.40;;;;;;;;;;5066568;28;20237;-53
2023/03/08 00:34:52;;;;;;;5.50;3.43;;;;;;;;;;5067938;28;20230;-52
2023/03/08 00:37:19;;;;;;;8.43;2.63;;;;;;;;;;5067219;28;20253;-54
2023/03/08 00:39:49;;;;;;;3.40;2.20;;;;;;;;;;5065334;28;20227;-52
2023/03/08 00:42:16;;;;;;;5.77;2.57;;;;;;;;;;5068505;28;20227;-53
2023/03/08 00:44:42;;;;;;;5.17;2.37;;;;;;;;;;5060346;28;20352;-52
2023/03/08 00:47:09;;;;;;;4.83;2.20;;;;;;;;;;5064883;28;20316;-51
2023/03/08 00:49:35;;;;;;;3.53;1.93;;;;;;;;;;5067924;28;20282;-52
2023/03/08 00:52:03;;;;;;;8.13;2.30;;;;;;;;;;5058946;28;21338;-52
2023/03/08 00:54:30;;;;;;;3.67;2.17;;;;;;;;;;5064887;28;20235;-52
2023/03/08 00:56:57;;;;;;;3.10;1.87;;;;;;;;;;5063499;28;20231;-52
2023/03/08 00:59:23;;;;;;;3.70;2.00;;;;;;;;;;5061097;28;20244;-52
2023/03/08 01:01:49;;;;;;;3.37;2.30;;;;;;;;;;5063027;28;20257;-51
2023/03/08 01:04:16;;;;;;;4.30;2.20;;;;;;;;;;5063815;28;20316;-52
2023/03/08 01:06:42;;;;;;;2.60;1.97;;;;;;;;;;5061486;28;20603;-53
2023/03/08 01:09:11;;;;;;;4.97;2.70;;;;;;;;;;5059008;28;20237;-53
2023/03/08 01:11:38;;;;;;;2.90;2.40;;;;;;;;;;5055890;28;20246;-58
2023/03/08 01:14:07;;;;;;;3.53;1.83;;;;;;;;;;5056297;28;20317;-52
2023/03/08 01:16:34;;;;;;;7.00;3.20;;;;;;;;;;5044912;28;20798;-51
2023/03/08 01:19:01;;;;;;;6.10;2.40;;;;;;;;;;5058214;28;20231;-51
2023/03/08 01:21:28;;;;;;;4.97;2.43;;;;;;;;;;5050949;28;20598;-52
2023/03/08 01:23:55;;;;;;;6.27;2.40;;;;;;;;;;5064433;28;20325;-52
2023/03/08 01:26:24;;;;;;;7.03;3.20;;;;;;;;;;5057351;28;20227;-51
2023/03/08 01:28:51;;;;;;;3.93;2.70;;;;;;;;;;5060750;28;20300;-51
2023/03/08 01:31:19;;;;;;;3.07;2.20;;;;;;;;;;5063526;28;20237;-54
2023/03/08 01:33:46;;;;;;;8.23;3.50;;;;;;;;;;5058030;28;20234;-53
2023/03/08 01:36:13;;;;;;;4.13;3.10;;;;;;;;;;5061717;28;20234;-53
2023/03/08 01:38:40;;;;;;;6.60;3.67;;;;;;;;;;5063483;28;20239;-52
2023/03/08 01:41:08;;;;;;;4.90;3.43;;;;;;;;;;5061959;28;20321;-51
2023/03/08 01:43:37;;;;;;;6.53;3.60;;;;;;;;;;5064487;28;20980;-51
2023/03/08 01:46:05;;;;;;;7.63;3.47;;;;;;;;;;5064220;28;20388;-51
2023/03/08 01:48:33;;;;;;;7.20;3.80;;;;;;;;;;5058537;28;21739;-52
2023/03/08 01:51:01;;;;;;;5.17;3.40;;;;;;;;;;5062332;28;20307;-52
2023/03/08 01:53:27;;;;;;;6.40;3.60;;;;;;;;;;5060577;28;20717;-52
2023/03/08 01:55:54;;;;;;;9.03;4.47;;;;;;;;;;5062494;28;20232;-52
2023/03/08 01:58:21;;;;;;;7.50;4.20;;;;;;;;;;5062038;28;20754;-52
2023/03/08 02:00:49;;;;;;;6.27;3.70;;;;;;;;;;5062814;28;20230;-53
2023/03/08 02:03:15;;;;;;;8.07;3.93;;;;;;;;;;5054464;28;20237;-53
2023/03/08 02:05:43;;;;;;;5.40;3.77;;;;;;;;;;5066389;28;20236;-51
2023/03/08 02:08:10;;;;;;;6.20;4.60;;;;;;;;;;5056361;28;20876;-51
2023/03/08 02:10:37;;;;;;;8.23;4.73;;;;;;;;;;5060932;28;20234;-51
2023/03/08 02:13:04;;;;;;;5.40;4.47;;;;;;;;;;5062452;28;20265;-50
2023/03/08 02:15:31;;;;;;;8.67;4.10;;;;;;;;;;5063767;28;20230;-52
2023/03/08 02:17:59;;;;;;;9.50;4.40;;;;;;;;;;5062839;28;20265;-51
2023/03/08 02:20:28;;;;;;;5.40;4.00;;;;;;;;;;5053504;28;20240;-52
2023/03/08 02:23:06;;;;;;;6.07;5.20;;;;;;;;;;5063910;28;20718;-52
2023/03/08 02:25:33;;;;;;;6.90;5.13;;;;;;;;;;5061886;28;20325;-51
2023/03/08 02:28:00;;;;;;;5.73;4.80;;;;;;;;;;5063002;28;20245;-53
2023/03/08 02:30:27;;;;;;;7.90;5.00;;;;;;;;;;5064755;28;20759;-52
2023/03/08 02:32:54;;;;;;;5.47;4.93;;;;;;;;;;5063140;28;20245;-52
2023/03/08 02:35:21;;;;;;;9.23;5.80;;;;;;;;;;5063148;28;20238;-53
2023/03/08 02:37:47;;;;;;;7.10;5.93;;;;;;;;;;5056046;28;20232;-52
2023/03/08 02:40:15;;;;;;;7.40;5.43;;;;;;;;;;5062982;28;20289;-52
2023/03/08 02:42:42;;;;;;;6.90;6.20;;;;;;;;;;5064153;28;20246;-52
2023/03/08 02:45:09;;;;;;;10.80;5.77;;;;;;;;;;5063081;28;20280;-51
2023/03/08 02:47:36;;;;;;;9.50;5.57;;;;;;;;;;5061657;28;20317;-54
2023/03/08 02:50:03;;;;;;;9.30;6.33;;;;;;;;;;5060779;28;20228;-51
2023/03/08 02:52:30;;;;;;;10.60;5.93;;;;;;;;;;5062470;28;20418;-51
2023/03/08 02:54:56;;;;;;;6.97;6.23;;;;;;;;;;5061830;28;20888;-51
2023/03/08 02:57:24;;;;;;;10.33;6.50;;;;;;;;;;5060104;28;20342;-52
2023/03/08 02:59:51;;;;;;;8.37;6.00;;;;;;;;;;5060393;28;20312;-51
2023/03/08 03:02:18;;;;;;;9.83;6.37;;;;;;;;;;5061496;28;20282;-53
2023/03/08 03:04:44;;;;;;;8.33;6.63;;;;;;;;;;5054115;28;20229;-53
2023/03/08 03:07:11;;;;;;;8.47;7.20;;;;;;;;;;5062552;28;20261;-52
2023/03/08 03:09:38;;;;;;;14.30;6.63;;;;;;;;;;5061297;28;20476;-52
2023/03/08 03:12:04;;;;;;;9.37;7.43;;;;;;;;;;5062681;28;20320;-51
2023/03/08 03:14:32;;;;;;;7.43;6.20;;;;;;;;;;5061739;28;20733;-52
2023/03/08 03:16:59;;;;;;;8.43;7.07;;;;;;;;;;5060884;28;20283;-53
2023/03/08 03:19:26;;;;;;;8.63;6.70;;;;;;;;;;5061852;28;20242;-51
2023/03/08 03:21:52;;;;;;;7.87;6.53;;;;;;;;;;5063553;28;20241;-52
2023/03/08 03:24:19;;;;;;;17.87;12.53;;;;;;;;;;5063263;28;20242;-52
2023/03/08 03:26:45;;;;;;;9.67;6.67;;;;;;;;;;5063014;28;20227;-52
2023/03/08 03:29:12;;;;;;;10.37;7.00;;;;;;;;;;5062299;28;20322;-53
2023/03/08 03:31:40;;;;;;;9.10;7.27;;;;;;;;;;5063272;28;21088;-52
2023/03/08 03:34:08;;;;;;;10.70;7.17;;;;;;;;;;5061644;28;20234;-54
2023/03/08 03:36:35;;;;;;;9.57;7.50;;;;;;;;;;5063171;28;20234;-52
2023/03/08 03:39:02;;;;;;;9.40;6.83;;;;;;;;;;5060715;28;20233;-51
2023/03/08 03:41:29;;;;;;;9.40;7.13;;;;;;;;;;5062802;28;20779;-52
2023/03/08 03:43:55;;;;;;;9.60;6.90;;;;;;;;;;5061501;28;20230;-52
2023/03/08 03:46:22;;;;;;;10.30;7.50;;;;;;;;;;5064676;28;20263;-53
2023/03/08 03:48:50;;;;;;;11.57;8.03;;;;;;;;;;5060537;28;20759;-52
2023/03/08 03:51:17;;;;;;;8.70;6.57;;;;;;;;;;5056682;28;20234;-52
2023/03/08 03:53:44;;;;;;;11.23;7.30;;;;;;;;;;5060672;28;20316;-55
2023/03/08 03:56:12;;;;;;;8.80;7.20;;;;;;;;;;5062961;28;20585;-52
2023/03/08 03:58:39;;;;;;;10.10;7.43;;;;;;;;;;5061487;28;20273;-52
2023/03/08 04:01:07;;;;;;;10.53;7.80;;;;;;;;;;5061149;28;20228;-52
2023/03/08 04:03:34;;;;;;;9.30;7.30;;;;;;;;;;5061458;28;20238;-52
2023/03/08 04:06:07;;;;;;;7.97;7.17;;;;;;;;;;5046944;28;20232;-52
2023/03/08 04:08:33;;;;;;;8.37;7.00;;;;;;;;;;5056466;28;20234;-52
2023/03/08 04:11:00;;;;;;;10.73;7.57;;;;;;;;;;5064543;28;20240;-51
2023/03/08 04:13:27;;;;;;;9.83;7.70;;;;;;;;;;5062267;28;20768;-52
2023/03/08 04:15:53;;;;;;;9.03;6.87;;;;;;;;;;5065752;28;20322;-52
2023/03/08 04:18:20;;;;;;;11.33;7.13;;;;;;;;;;5065606;28;20242;-52
2023/03/08 04:20:47;;;;;;;11.13;7.33;;;;;;;;;;5065191;28;20241;-52
2023/03/08 04:23:15;;;;;;;10.80;7.70;;;;;;;;;;5062009;28;20242;-52
2023/03/08 04:25:41;;;;;;;9.23;7.00;;;;;;;;;;5066938;28;20721;-51
2023/03/08 04:28:08;;;;;;;8.97;8.03;;;;;;;;;;5065203;28;20231;-52
2023/03/08 04:30:34;;;;;;;9.23;7.37;;;;;;;;;;5055739;28;20231;-52
2023/03/08 04:33:01;;;;;;;9.93;7.67;;;;;;;;;;5060003;28;20231;-52
2023/03/08 04:35:27;;;;;;;7.90;7.10;;;;;;;;;;5063916;28;20235;-52
2023/03/08 04:37:54;;;;;;;8.07;6.57;;;;;;;;;;5063679;28;20232;-51
2023/03/08 04:40:22;;;;;;;9.07;8.00;;;;;;;;;;5066649;28;20292;-51
2023/03/08 04:42:48;;;;;;;10.97;6.30;;;;;;;;;;5067095;28;20340;-52
2023/03/08 04:45:15;;;;;;;7.47;6.63;;;;;;;;;;5059613;28;20285;-52
2023/03/08 04:47:42;;;;;;;9.90;7.67;;;;;;;;;;5054914;28;20321;-52
2023/03/08 04:50:09;;;;;;;8.63;5.93;;;;;;;;;;5064915;28;20231;-52
2023/03/08 04:52:35;;;;;;;7.97;6.73;;;;;;;;;;5065343;28;20241;-52
2023/03/08 04:55:02;;;;;;;7.97;6.90;;;;;;;;;;5068292;28;20635;-52
2023/03/08 04:57:30;;;;;;;10.73;8.27;;;;;;;;;;5068319;28;20772;-53
2023/03/08 04:59:56;;;;;;;9.80;7.63;;;;;;;;;;5067656;28;20266;-53
2023/03/08 05:02:23;;;;;;;8.80;7.03;;;;;;;;;;5067702;28;20238;-52
2023/03/08 05:04:50;;;;;;;9.70;6.93;;;;;;;;;;5069182;28;20234;-54
2023/03/08 05:07:18;;;;;;;14.80;6.83;;;;;;;;;;5057105;28;20231;-51
2023/03/08 05:09:44;;;;;;;11.83;7.87;;;;;;;;;;5055409;28;20227;-52
2023/03/08 05:12:11;;;;;;;8.57;6.60;;;;;;;;;;5064681;28;20328;-52
2023/03/08 05:14:39;;;;;;;9.30;7.30;;;;;;;;;;5055844;28;20779;-52
2023/03/08 05:17:05;;;;;;;7.77;6.63;;;;;;;;;;5076571;28;20235;-53
2023/03/08 05:19:32;;;;;;;8.63;7.50;;;;;;;;;;5086279;28;20235;-52
2023/03/08 05:21:59;;;;;;;10.30;6.30;;;;;;;;;;5085508;28;20322;-51
2023/03/08 05:24:26;;;;;;;7.87;6.73;;;;;;;;;;5084658;28;20242;-52
2023/03/08 05:26:52;;;;;;;7.50;6.70;;;;;;;;;;5070858;28;20233;-52
2023/03/08 05:29:19;;;;;;;9.30;6.83;;;;;;;;;;5071750;28;20280;-51
2023/03/08 05:31:49;;;;;;;11.73;6.80;;;;;;;;;;5068571;28;20308;-52
2023/03/08 05:34:15;;;;;;;9.53;7.77;;;;;;;;;;5069856;28;20231;-52
2023/03/08 05:36:43;;;;;;;9.87;6.53;;;;;;;;;;5068640;28;20287;-52
2023/03/08 05:39:10;;;;;;;10.80;7.73;;;;;;;;;;5064020;28;20937;-52
2023/03/08 05:41:37;;;;;;;8.30;6.87;;;;;;;;;;5068247;28;20246;-52
2023/03/08 05:44:03;;;;;;;10.30;7.43;;;;;;;;;;5060017;28;20241;-52
2023/03/08 05:46:30;;;;;;;8.07;6.90;;;;;;;;;;5067120;28;20326;-52
2023/03/08 05:48:58;;;;;;;8.63;7.27;;;;;;;;;;5064134;28;20321;-52
2023/03/08 05:51:24;;;;;;;10.03;7.97;;;;;;;;;;5065465;28;20241;-52
2023/03/08 05:53:51;;;;;;;8.43;7.60;;;;;;;;;;5067409;28;20233;-52
2023/03/08 05:56:19;;;;;;;8.20;7.40;;;;;;;;;;5061022;28;20292;-52
2023/03/08 05:58:45;;;;;;;8.53;6.47;;;;;;;;;;5071445;28;20237;-53
2023/03/08 06:01:13;;;;;;;9.73;6.97;;;;;;;;;;5074437;28;20303;-51
2023/03/08 06:03:39;;;;;;;8.47;7.03;;;;;;;;;;5069273;28;20646;-51
2023/03/08 06:06:07;;;;;;;8.77;7.60;;;;;;;;;;5066504;28;20436;-51
2023/03/08 06:08:34;;;;;;;11.53;8.67;;;;;;;;;;5066065;28;20439;-51
2023/03/08 06:11:00;;;;;;;9.63;7.23;;;;;;;;;;5068015;28;20313;-52
2023/03/08 06:13:27;;;;;;;9.03;7.03;;;;;;;;;;5065449;28;20303;-52
2023/03/08 06:15:54;;;;;;;8.13;6.67;;;;;;;;;;5063174;28;20231;-53
2023/03/08 06:18:21;;;;;;;8.27;7.17;;;;;;;;;;5065439;28;20333;-51
2023/03/08 06:20:55;;;;;;;10.13;7.30;;;;;;;;;;5066578;28;20268;-53
2023/03/08 06:23:23;;;;;;;7.80;6.77;;;;;;;;;;5046691;28;20238;-52
2023/03/08 06:25:49;;;;;;;9.57;7.43;;;;;;;;;;5052071;28;20234;-52
2023/03/08 06:28:16;;;;;;;8.57;7.60;;;;;;;;;;5055737;28;20316;-51
2023/03/08 06:30:48;;;;;;;8.73;7.70;;;;;;;;;;5056324;28;20227;-53
2023/03/08 06:33:14;;;;;;;15.70;8.20;;;;;;;;;;5061829;28;20234;-52
2023/03/08 06:35:41;;;;;;;7.80;6.77;;;;;;;;;;5065110;28;20238;-51
2023/03/08 06:38:08;;;;;;;8.53;7.67;;;;;;;;;;5063905;28;20238;-51
2023/03/08 06:40:36;;;;;;;12.30;8.10;;;;;;;;;;5065996;28;20226;-51
2023/03/08 06:43:02;;;;;;;10.83;7.80;;;;;;;;;;5064477;28;20243;-52
2023/03/08 06:45:29;;;;;;;8.67;7.10;;;;;;;;;;5064582;28;20340;-51
2023/03/08 06:47:55;;;;;;;8.07;7.13;;;;;;;;;;5065707;28;20238;-53
2023/03/08 06:50:22;;;;;;;11.53;7.60;;;;;;;;;;5064374;28;20233;-53
2023/03/08 06:52:48;;;;;;;10.67;7.43;;;;;;;;;;5065696;28;20245;-53
2023/03/08 06:55:15;;;;;;;11.70;7.50;;;;;;;;;;5062105;28;20231;-52
2023/03/08 06:57:43;;;;;;;11.27;7.93;;;;;;;;;;5062369;28;20233;-52
2023/03/08 07:00:12;;;;;;;10.37;8.23;;;;;;;;;;5060229;28;20240;-52
2023/03/08 07:02:38;;;;;;;11.47;7.77;;;;;;;;;;5064785;28;20237;-55
2023/03/08 07:05:05;;;;;;;8.40;7.13;;;;;;;;;;5061312;28;20230;-52
2023/03/08 07:07:32;;;;;;;12.30;8.13;;;;;;;;;;5061072;28;20253;-53
2023/03/08 07:09:58;;;;;;;11.70;8.60;;;;;;;;;;5063311;28;20618;-52
2023/03/08 07:12:25;;;;;;;10.93;7.67;;;;;;;;;;5058032;28;20844;-52
2023/03/08 07:14:53;;;;;;;10.23;7.70;;;;;;;;;;5059438;28;20240;-52
2023/03/08 07:17:20;;;;;;;10.63;8.13;;;;;;;;;;5062615;28;20234;-51
2023/03/08 07:19:46;;;;;;;10.00;7.87;;;;;;;;;;5056042;28;20284;-52
2023/03/08 07:22:13;;;;;;;9.47;7.47;;;;;;;;;;5061789;28;20290;-54
2023/03/08 07:24:39;;;;;;;12.10;7.90;;;;;;;;;;5058870;28;20383;-51
2023/03/08 07:27:06;;;;;;;10.00;8.03;;;;;;;;;;5055958;28;20225;-52
2023/03/08 07:29:32;;;;;;;12.07;7.77;;;;;;;;;;5061199;28;20233;-52
2023/03/08 07:32:01;;;;;;;8.20;7.37;;;;;;;;;;5060796;28;20316;-53
2023/03/08 07:34:28;;;;;;;10.87;7.57;;;;;;;;;;5061374;28;20240;-53
2023/03/08 07:36:54;;;;;;;13.00;7.60;;;;;;;;;;5060439;28;20270;-52
2023/03/08 07:39:21;;;;;;;10.30;7.40;;;;;;;;;;5054706;28;20249;-51
2023/03/08 07:41:48;;;;;;;8.17;7.30;;;;;;;;;;5064996;28;20242;-52
2023/03/08 07:44:15;;;;;;;9.73;7.60;;;;;;;;;;5065542;28;20232;-53
2023/03/08 07:46:42;;;;;;;11.33;6.97;;;;;;;;;;5059826;28;20251;-52
2023/03/08 07:49:10;;;;;;;9.03;7.20;;;;;;;;;;5066178;28;20239;-52
2023/03/08 07:51:37;;;;;;;9.70;6.87;;;;;;;;;;5065784;28;20324;-52
2023/03/08 07:54:03;;;;;;;7.80;7.10;;;;;;;;;;5065854;28;20239;-52
2023/03/08 07:56:30;;;;;;;9.10;7.40;;;;;;;;;;5064139;28;20258;-52
2023/03/08 07:58:57;;;;;;;9.27;6.87;;;;;;;;;;5063922;28;20242;-52
2023/03/08 08:01:23;;;;;;;10.07;6.87;;;;;;;;;;5066302;28;20231;-52
2023/03/08 08:03:50;;;;;;;9.13;7.67;;;;;;;;;;5064815;28;20238;-53
2023/03/08 08:06:19;;;;;;;9.33;7.47;;;;;;;;;;5059016;28;20235;-52
2023/03/08 08:08:45;;;;;;;9.77;6.97;;;;;;;;;;5057888;28;20226;-52
2023/03/08 08:11:13;;;;;;;10.73;7.80;;;;;;;;;;5060946;28;20345;-54
2023/03/08 08:13:40;;;;;;;7.73;6.93;;;;;;;;;;5062405;28;20285;-52
2023/03/08 08:16:07;;;;;;;12.60;7.33;;;;;;;;;;5055302;28;20235;-51
2023/03/08 08:18:34;;;;;;;8.43;5.97;;;;;;;;;;5064288;28;20251;-52
2023/03/08 08:21:01;;;;;;;7.20;6.43;;;;;;;;;;5064856;28;20243;-53
2023/03/08 08:23:29;;;;;;;8.33;6.93;;;;;;;;;;5065035;28;20229;-52
2023/03/08 08:25:55;;;;;;;10.57;6.33;;;;;;;;;;5063750;28;20806;-51
2023/03/08 08:28:22;;;;;;;7.53;6.17;;;;;;;;;;5061837;28;20237;-51
2023/03/08 08:30:55;;;;;;;11.80;7.90;;;;;;;;;;5061957;28;20244;-53
2023/03/08 08:33:22;;;;;;;7.00;5.73;;;;;;;;;;5061744;28;20266;-51
2023/03/08 08:35:48;;;;;;;8.00;6.67;;;;;;;;;;5064083;28;20238;-51
2023/03/08 08:38:15;;;;;;;10.23;7.13;;;;;;;;;;5062288;28;20325;-52
2023/03/08 08:40:43;;;;;;;7.83;5.63;;;;;;;;;;5062573;28;20268;-53
2023/03/08 08:43:10;;;;;;;8.60;6.70;;;;;;;;;;5060555;28;20251;-52
2023/03/08 08:45:36;;;;;;;8.60;6.10;;;;;;;;;;5063464;28;20226;-55
2023/03/08 08:48:03;;;;;;;7.37;6.67;;;;;;;;;;5062900;28;20321;-53
2023/03/08 08:50:29;;;;;;;6.47;5.77;;;;;;;;;;5069270;28;20230;-52
2023/03/08 08:52:56;;;;;;;7.10;5.03;;;;;;;;;;5059602;28;20317;-51
2023/03/08 08:55:22;;;;;;;6.80;4.97;;;;;;;;;;5064113;28;20250;-51
2023/03/08 08:57:51;;;;;;;5.93;4.30;;;;;;;;;;5062864;28;20728;-53
2023/03/08 09:00:18;;;;;;;5.57;4.40;;;;;;;;;;5058725;28;20361;-51
2023/03/08 09:02:45;;;;;;;5.67;5.07;;;;;;;;;;5061117;28;20237;-51
2023/03/08 09:05:11;;;;;;;4.80;3.80;;;;;;;;;;5064422;28;20227;-51
2023/03/08 09:07:38;;;;;;;4.43;4.03;;;;;;;;;;5063451;28;20325;-51
2023/03/08 09:10:05;;;;;;;4.50;4.00;;;;;;;;;;5062570;28;20651;-51
2023/03/08 09:12:32;;;;;;;4.13;3.73;;;;;;;;;;5067224;28;20241;-52
2023/03/08 09:15:00;;;;;;;7.57;4.53;;;;;;;;;;5063840;28;20652;-52
2023/03/08 09:17:27;;;;;;;4.50;3.40;;;;;;;;;;5063336;28;20234;-51
2023/03/08 09:19:54;;;;;;;4.17;2.90;;;;;;;;;;5065343;28;20675;-52
2023/03/08 09:22:20;;;;;;;4.50;3.03;;;;;;;;;;5063700;28;20696;-52
2023/03/08 09:24:48;;;;;;;3.30;2.83;;;;;;;;;;5063683;28;20283;-52
2023/03/08 09:27:15;;;;;;;3.47;3.07;;;;;;;;;;5062773;28;20239;-52
2023/03/08 09:29:41;;;;;;;2.93;2.30;;;;;;;;;;5067250;28;20237;-52
2023/03/08 09:32:09;;;;;;;3.57;2.37;;;;;;;;;;5064407;28;20454;-52
2023/03/08 09:34:36;;;;;;;6.13;2.70;;;;;;;;;;5058914;28;20231;-52
2023/03/08 09:37:04;;;;;;;2.93;2.73;;;;;;;;;;5062792;28;20695;-52
2023/03/08 09:39:31;;;;;;;5.10;2.77;;;;;;;;;;5061721;28;20234;-52
2023/03/08 09:41:58;;;;;;;3.27;2.80;;;;;;;;;;5064389;28;20256;-53
2023/03/08 09:44:48;;;;;;;2.90;2.60;;;;;;;;;;5064351;28;20234;-52
2023/03/08 09:47:20;;;;;;;5.60;3.30;;;;;;;;;;5062660;28;20239;-52
2023/03/08 09:49:48;;;;;;;10.57;7.27;;;;;;;;;;5059116;28;20240;-51
2023/03/08 09:52:17;;;;;;;3.87;3.30;;;;;;;;;;5061226;28;20628;-51
2023/03/08 09:54:45;;;;;;;5.87;3.27;;;;;;;;;;5057437;28;20317;-51
2023/03/08 09:57:14;;;;;;;3.53;3.03;;;;;;;;;;5064895;28;20234;-52
2023/03/08 09:59:44;;;;;;;3.03;2.73;;;;;;;;;;5064463;28;20245;-52
2023/03/08 10:02:20;;;;;;;2.97;2.67;;;;;;;;;;5059427;28;20239;-52
2023/03/08 10:04:53;;;;;;;3.10;2.77;;;;;;;;;;5062161;28;20234;-52
2023/03/08 10:07:22;;;;;;;4.13;2.30;;;;;;;;;;5062109;28;20248;-53
2023/03/08 10:09:53;;;;;;;3.50;3.00;;;;;;;;;;5064578;28;20293;-52
2023/03/08 10:12:22;;;;;;;5.63;3.00;;;;;;;;;;5061670;28;20236;-51
2023/03/08 10:14:49;;;;;;;3.30;3.00;;;;;;;;;;5060185;28;20231;-53
2023/03/08 10:17:19;;;;;;;4.57;2.47;;;;;;;;;;5061381;28;20322;-52
2023/03/08 10:19:48;;;;;;;3.17;2.90;;;;;;;;;;5060970;28;20237;-53
2023/03/08 10:22:16;;;;;;;2.53;2.40;;;;;;;;;;5061425;28;20239;-51
2023/03/08 10:24:45;;;;;;;3.97;3.03;;;;;;;;;;5061448;28;20772;-52
2023/03/08 10:27:16;;;;;;;4.70;2.90;;;;;;;;;;5055510;28;20231;-53
2023/03/08 10:29:47;;;;;;;4.53;3.33;;;;;;;;;;5063305;28;20672;-51
2023/03/08 10:32:13;;;;;;;4.60;2.93;;;;;;;;;;5057873;28;20239;-52
2023/03/08 10:34:41;;;;;;;4.57;2.90;;;;;;;;;;5058768;28;20424;-53
2023/03/08 10:37:08;;;;;;;3.97;2.93;;;;;;;;;;5061773;28;20248;-51
2023/03/08 10:39:35;;;;;;;3.63;3.33;;;;;;;;;;5058661;28;20234;-52
2023/03/08 10:42:06;;;;;;;4.27;3.37;;;;;;;;;;5061764;28;20343;-51
2023/03/08 10:44:35;;;;;;;2.80;2.60;;;;;;;;;;5063933;28;20235;-53
2023/03/08 10:47:03;;;;;;;3.20;2.90;;;;;;;;;;5062673;28;20245;-51
2023/03/08 10:49:29;;;;;;;3.00;2.80;;;;;;;;;;5058494;28;20263;-51
2023/03/08 10:51:58;;;;;;;3.27;3.00;;;;;;;;;;5058654;28;20325;-52
2023/03/08 10:54:24;;;;;;;3.23;2.93;;;;;;;;;;5062454;28;20226;-52
2023/03/08 10:56:52;;;;;;;4.80;3.10;;;;;;;;;;5060443;28;20241;-51
2023/03/08 10:59:20;;;;;;;2.57;2.20;;;;;;;;;;5061779;28;20237;-51
2023/03/08 11:01:48;;;;;;;3.17;2.30;;;;;;;;;;5061388;28;20253;-52
2023/03/08 11:04:15;;;;;;;2.87;2.57;;;;;;;;;;5062892;28;20618;-51
2023/03/08 11:06:42;;;;;;;4.57;3.03;;;;;;;;;;5062496;28;20784;-52
2023/03/08 11:09:20;;;;;;;3.10;2.87;;;;;;;;;;5060422;28;20245;-52
2023/03/08 11:11:46;;;;;;;2.97;2.67;;;;;;;;;;5059732;28;20234;-52
2023/03/08 11:14:12;;;;;;;3.10;2.80;;;;;;;;;;5060786;28;20244;-51
2023/03/08 11:16:48;;;;;;;5.20;3.03;;;;;;;;;;5057347;28;20599;-52
2023/03/08 11:19:21;;;;;;;3.73;3.33;;;;;;;;;;5058099;28;20266;-51
2023/03/08 11:21:52;;;;;;;3.70;3.30;;;;;;;;;;5061356;28;20257;-51
2023/03/08 11:24:33;;;;;;;3.47;3.17;;;;;;;;;;5058165;28;20653;-52
2023/03/08 11:27:05;;;;;;;3.37;3.07;;;;;;;;;;5061184;28;20230;-51
2023/03/08 11:29:35;;;;;;;4.87;4.07;;;;;;;;;;5062011;28;20234;-52
2023/03/08 11:32:05;;;;;;;5.97;3.43;;;;;;;;;;5055934;28;20234;-52
2023/03/08 11:34:45;;;;;;;3.77;3.43;;;;;;;;;;5057686;28;20254;-51
2023/03/08 11:37:15;;;;;;;4.23;3.83;;;;;;;;;;5056545;28;20240;-52
2023/03/08 11:39:44;;;;;;;7.53;3.93;;;;;;;;;;5064428;28;20241;-52
2023/03/08 11:42:14;;;;;;;3.47;3.17;;;;;;;;;;5062827;28;20246;-52
2023/03/08 11:44:57;;;;;;;5.00;3.73;;;;;;;;;;5063288;28;20670;-52
2023/03/08 11:47:39;;;;;;;3.33;3.03;;;;;;;;;;5061339;28;20225;-53
2023/03/08 11:50:08;;;;;;;4.43;3.30;;;;;;;;;;5061810;28;20232;-52
2023/03/08 11:52:40;;;;;;;3.70;3.40;;;;;;;;;;5062174;28;20230;-51
2023/03/08 11:55:19;;;;;;;3.80;3.40;;;;;;;;;;5062217;28;20310;-52
2023/03/08 11:57:48;;;;;;;4.13;3.73;;;;;;;;;;5060821;28;20237;-53
2023/03/08 12:00:21;;;;;;;5.03;3.17;;;;;;;;;;5058528;28;20231;-53
2023/03/08 12:02:48;;;;;;;2.43;2.23;;;;;;;;;;5059750;28;20243;-52
2023/03/08 12:05:22;;;;;;;2.87;2.67;;;;;;;;;;5062253;28;20323;-53
2023/03/08 12:07:51;;;;;;;3.80;2.80;;;;;;;;;;5059580;28;20231;-51
2023/03/08 12:10:20;;;;;;;3.93;3.30;;;;;;;;;;5059667;28;20316;-53
2023/03/08 12:12:49;;;;;;;2.70;2.50;;;;;;;;;;5060689;28;20235;-52
2023/03/08 12:15:22;;;;;;;4.00;2.70;;;;;;;;;;5063572;28;20322;-53
2023/03/08 12:17:51;;;;;;;3.73;2.83;;;;;;;;;;5062110;28;20246;-52
2023/03/08 12:20:19;;;;;;;3.87;3.20;;;;;;;;;;5062073;28;20238;-52
2023/03/08 12:22:46;;;;;;;3.97;2.80;;;;;;;;;;5062244;28;20616;-52
2023/03/08 12:25:17;;;;;;;3.07;2.77;;;;;;;;;;5066452;28;20235;-52
2023/03/08 12:27:47;;;;;;;3.20;2.67;;;;;;;;;;5058719;28;20237;-52
2023/03/08 12:30:17;;;;;;;5.53;3.30;;;;;;;;;;5061470;28;20325;-52
2023/03/08 12:32:44;;;;;;;5.07;2.57;;;;;;;;;;5059354;28;20322;-52
2023/03/08 12:35:25;;;;;;;3.07;2.77;;;;;;;;;;5065496;28;20985;-52
2023/03/08 12:37:55;;;;;;;3.17;2.53;;;;;;;;;;5065095;28;20233;-52
2023/03/08 12:40:35;;;;;;;3.00;2.63;;;;;;;;;;5066716;28;20620;-52
2023/03/08 12:43:07;;;;;;;2.90;2.70;;;;;;;;;;5065495;28;20672;-52
2023/03/08 12:45:34;;;;;;;3.60;3.00;;;;;;;;;;5065312;28;20313;-51
2023/03/08 12:48:02;;;;;;;3.63;3.30;;;;;;;;;;5062945;28;20238;-52
2023/03/08 12:50:28;;;;;;;5.20;2.90;;;;;;;;;;5063231;28;20276;-51
2023/03/08 12:52:55;;;;;;;3.03;2.70;;;;;;;;;;5060813;28;20235;-51
2023/03/08 12:55:29;;;;;;;3.90;3.50;;;;;;;;;;5060231;28;20289;-52
2023/03/08 12:57:56;;;;;;;3.93;3.37;;;;;;;;;;5065856;28;20287;-51
2023/03/08 13:00:27;;;;;;;4.97;3.27;;;;;;;;;;5065601;28;20235;-53
2023/03/08 13:03:00;;;;;;;2.60;2.40;;;;;;;;;;5066718;28;20231;-53
2023/03/08 13:05:31;;;;;;;4.07;3.43;;;;;;;;;;5066661;28;20237;-52
2023/03/08 13:08:03;;;;;;;3.50;3.20;;;;;;;;;;5063845;28;20235;-52
2023/03/08 13:10:31;;;;;;;3.27;2.97;;;;;;;;;;5063051;28;20314;-52
2023/03/08 13:13:04;;;;;;;4.23;3.07;;;;;;;;;;5066408;28;20361;-52
2023/03/08 13:15:31;;;;;;;3.57;3.20;;;;;;;;;;5066044;28;20314;-51
2023/03/08 13:17:59;;;;;;;3.20;2.47;;;;;;;;;;5063145;28;20723;-52
2023/03/08 13:20:28;;;;;;;4.57;2.67;;;;;;;;;;5062899;28;20230;-52
2023/03/08 13:23:01;;;;;;;3.57;3.27;;;;;;;;;;5066449;28;21537;-51
2023/03/08 13:25:37;;;;;;;5.40;3.70;;;;;;;;;;5071642;28;20265;-51
2023/03/08 13:28:05;;;;;;;5.47;3.97;;;;;;;;;;5067275;28;20238;-52
2023/03/08 13:30:33;;;;;;;6.23;3.53;;;;;;;;;;5069659;28;20625;-52
2023/03/08 13:33:00;;;;;;;3.83;3.53;;;;;;;;;;5067920;28;20322;-51
2023/03/08 13:35:27;;;;;;;3.60;3.30;;;;;;;;;;5060170;28;20323;-51
2023/03/08 13:37:54;;;;;;;3.90;3.50;;;;;;;;;;5052337;28;20608;-53
2023/03/08 13:40:21;;;;;;;3.80;3.20;;;;;;;;;;5065579;28;20238;-52
2023/03/08 13:42:58;;;;;;;4.43;3.80;;;;;;;;;;5064570;28;20325;-53
2023/03/08 13:45:25;;;;;;;5.27;4.00;;;;;;;;;;5061119;28;20746;-52
2023/03/08 13:47:54;;;;;;;4.80;4.20;;;;;;;;;;5065111;28;20265;-52
2023/03/08 13:50:21;;;;;;;4.23;3.83;;;;;;;;;;5065233;28;20709;-51
2023/03/08 13:52:48;;;;;;;5.00;4.50;;;;;;;;;;5069633;28;20289;-53
2023/03/08 13:55:19;;;;;;;4.43;4.00;;;;;;;;;;5069436;28;20245;-52
2023/03/08 13:57:48;;;;;;;5.30;4.80;;;;;;;;;;5061381;28;20230;-52
2023/03/08 14:00:24;;;;;;;4.87;4.30;;;;;;;;;;5060018;28;20264;-52
2023/03/08 14:02:50;;;;;;;4.97;4.57;;;;;;;;;;5062367;28;20235;-51
2023/03/08 14:05:19;;;;;;;8.07;4.83;;;;;;;;;;5065264;28;20258;-51
2023/03/08 14:07:55;;;;;;;9.70;5.37;;;;;;;;;;5065241;28;20270;-52
2023/03/08 14:10:26;;;;;;;5.23;4.67;;;;;;;;;;5062184;28;20222;-52
2023/03/08 14:12:52;;;;;;;6.10;5.27;;;;;;;;;;5063883;28;20321;-52
2023/03/08 14:15:19;;;;;;;23.33;16.00;;;;;;;;;;5063076;28;20310;-52
2023/03/08 14:17:45;;;;;;;6.43;5.73;;;;;;;;;;5061110;28;20287;-51
2023/03/08 14:20:20;;;;;;;5.17;4.33;;;;;;;;;;5061142;28;20605;-51
2023/03/08 14:22:47;;;;;;;4.90;4.33;;;;;;;;;;5059279;28;21336;-52
2023/03/08 14:25:21;;;;;;;6.20;5.20;;;;;;;;;;5059062;28;20769;-52
2023/03/08 14:27:47;;;;;;;4.93;4.20;;;;;;;;;;5060039;28;21201;-52
2023/03/08 14:30:16;;;;;;;8.50;5.17;;;;;;;;;;5058499;28;20329;-51
2023/03/08 14:32:57;;;;;;;5.77;4.80;;;;;;;;;;5061836;28;20794;-52
2023/03/08 14:35:25;;;;;;;6.97;6.27;;;;;;;;;;5061474;28;20254;-54
2023/03/08 14:37:54;;;;;;;5.83;5.07;;;;;;;;;;5063828;28;20330;-51
2023/03/08 14:40:24;;;;;;;5.23;4.60;;;;;;;;;;5059547;28;20229;-52
2023/03/08 14:42:52;;;;;;;6.33;5.20;;;;;;;;;;5063513;28;20358;-52
2023/03/08 14:45:20;;;;;;;5.77;5.13;;;;;;;;;;5062478;28;20256;-51